Messwerte Nadschaf

Temperatur

Temperatur
°C
1615017600 11.00 11.00 20
1615021200 12.00 12.00 21
1615024800 13.00 13.00 22
1615028400 14.00 14.00 23
1615032000 15.00 15.00 23
1615035600 16.00 16.00
1615039200 17.00 17.00 23
1615042800 18.00 18.00 22
1615046400 19.00 19.00 20
1615050000 20.00 20.00 19
1615053600 21.00 21.00 15
1615057200 22.00 22.00 13
1615060800 23.00 23.00 13
1615064400 0.00 0.00 13
1615068000 1.00 1.00
1615071600 2.00 2.00 11
1615075200 3.00 3.00 10
1615078800 4.00 4.00 10
1615082400 5.00 5.00 10
1615086000 6.00 6.00 10
1615089600 7.00 7.00 9
1615093200 8.00 8.00 13
1615096800 9.00 9.00 16
1615100400 10.00 10.00 19

Aktuellste Messwerte

Wettercharakter
Wetter: recht sonnig
Temperatur
21 °C
Feuchtigkeit
25 %
Wind
5 km/hWindrichtung: Südwest
Luftdruck
1019 hPa
Messzeit: 7. März 2021, 11.00Datenquelle: METAR

Weitere Messstationen in der Nähe

Messstation Temperatur Entfernung
Bagdad 19 °C 139 km
Al Asad Airfield 20 °C 267 km
Rafha 19 °C 274 km
Arar 21 °C 325 km
Basrah 22 °C 364 km
Kermanshah 11 °C 364 km
Silemani 13 °C 410 km

Wind

Windrichtung Böen Mittelwind
° km/h km/h
1615017600 11.00 10.00 - 11.00 310° 15
1615021200 12.00 11.00 - 12.00 310° 20
1615024800 13.00 12.00 - 13.00 320° 30
1615028400 14.00 13.00 - 14.00 310° 30
1615032000 15.00 14.00 - 15.00 310° 5
1615035600 16.00 15.00 - 16.00
1615039200 17.00 16.00 - 17.00 340° 10
1615042800 18.00 17.00 - 18.00 330° 15
1615046400 19.00 18.00 - 19.00 360° 10
1615050000 20.00 19.00 - 20.00 340° 10
1615053600 21.00 20.00 - 21.00 300° 5
1615057200 22.00 21.00 - 22.00 300° 5
1615060800 23.00 22.00 - 23.00 300° 5
1615064400 0.00 23.00 - 0.00 260° 5
1615068000 1.00 0.00 - 1.00
1615071600 2.00 1.00 - 2.00 240° 5
1615075200 3.00 2.00 - 3.00 240° 10
1615078800 4.00 3.00 - 4.00 260° 15
1615082400 5.00 4.00 - 5.00 220° 10
1615086000 6.00 5.00 - 6.00 240° 10
1615089600 7.00 6.00 - 7.00 0
1615093200 8.00 7.00 - 8.00 0
1615096800 9.00 8.00 - 9.00 240° 5
1615100400 10.00 9.00 - 10.00 230° 5

Ihre Wetterstation

Fehlt Ihre Wetterstation auf unserem Portal?

Schreiben Sie an network@meteonews.ch